createdAt,value
2022-08-10T00:01:40.580Z,47.47
2022-08-10T00:04:08.556Z,47.43
2022-08-10T00:06:37.001Z,47.79
2022-08-10T00:09:05.153Z,47.88
2022-08-10T00:11:33.111Z,47.92
2022-08-10T00:14:01.011Z,47.79
2022-08-10T00:16:28.891Z,48.10
2022-08-10T00:18:58.184Z,48.45
2022-08-10T00:21:27.224Z,48.82
2022-08-10T00:23:55.353Z,49.36
2022-08-10T00:26:23.256Z,49.48
2022-08-10T00:28:51.138Z,49.28
2022-08-10T00:31:19.041Z,49.37
2022-08-10T00:33:46.940Z,49.13
2022-08-10T00:36:16.249Z,49.34
2022-08-10T00:38:44.178Z,49.04
2022-08-10T00:41:12.109Z,49.08
2022-08-10T00:43:40.020Z,49.25
2022-08-10T00:46:07.972Z,49.18
2022-08-10T00:48:36.065Z,49.38
2022-08-10T00:51:04.018Z,49.12
2022-08-10T00:53:33.340Z,48.96
2022-08-10T00:57:10.092Z,49.18
2022-08-10T00:58:49.353Z,48.97
2022-08-10T01:02:09.338Z,48.91
2022-08-10T01:04:58.110Z,48.85
2022-08-10T01:07:09.754Z,49.06
2022-08-10T01:09:57.209Z,49.36
2022-08-10T01:12:39.280Z,49.54
2022-08-10T01:15:12.333Z,49.29
2022-08-10T01:17:50.145Z,49.71
2022-08-10T01:20:30.330Z,49.30
2022-08-10T01:23:34.224Z,49.55
2022-08-10T01:26:37.288Z,49.81
2022-08-10T01:29:46.715Z,49.55
2022-08-10T01:32:16.189Z,49.79
2022-08-10T01:34:49.740Z,49.63
2022-08-10T01:37:19.649Z,49.86
2022-08-10T01:39:48.569Z,50.04
2022-08-10T01:42:17.978Z,49.73
2022-08-10T01:44:49.281Z,50.17
2022-08-10T01:47:37.032Z,50.31
2022-08-10T01:50:06.943Z,50.72
2022-08-10T01:52:34.979Z,51.09
2022-08-10T01:55:03.082Z,50.98
2022-08-10T01:57:32.450Z,51.19
2022-08-10T02:00:02.075Z,51.06
2022-08-10T02:02:31.883Z,51.14
2022-08-10T02:04:59.829Z,51.36
2022-08-10T02:07:28.476Z,51.48
2022-08-10T02:09:57.673Z,51.14
2022-08-10T02:12:27.713Z,51.44
2022-08-10T02:14:57.061Z,51.66
2022-08-10T02:18:00.668Z,51.51
2022-08-10T02:20:18.173Z,51.66
2022-08-10T02:22:46.677Z,51.76
2022-08-10T02:25:41.191Z,51.59
2022-08-10T02:28:03.721Z,51.71
2022-08-10T02:30:31.596Z,51.42
2022-08-10T02:32:59.681Z,51.64
2022-08-10T02:35:31.498Z,51.60
2022-08-10T02:38:20.643Z,51.82
2022-08-10T02:42:18.068Z,51.60
2022-08-10T02:45:20.714Z,51.86
2022-08-10T02:46:30.926Z,51.67
2022-08-10T02:49:00.964Z,51.49
2022-08-10T02:52:07.291Z,51.43
2022-08-10T02:54:22.767Z,51.40
2022-08-10T02:56:54.692Z,51.86
2022-08-10T02:59:24.975Z,51.62
2022-08-10T03:01:55.398Z,51.94
2022-08-10T03:04:57.040Z,51.83
2022-08-10T03:07:15.892Z,51.71
2022-08-10T03:09:43.797Z,51.58
2022-08-10T03:12:35.559Z,51.76
2022-08-10T03:15:00.270Z,51.76
2022-08-10T03:17:28.246Z,51.61
2022-08-10T03:20:33.398Z,51.55
2022-08-10T03:22:45.506Z,51.66
2022-08-10T03:25:13.493Z,51.15
2022-08-10T03:27:41.574Z,51.42
2022-08-10T03:30:28.234Z,51.27
2022-08-10T03:32:58.701Z,51.11
2022-08-10T03:35:26.614Z,51.17
2022-08-10T03:37:59.156Z,51.20
2022-08-10T03:40:44.652Z,51.26
2022-08-10T03:43:14.982Z,51.32
2022-08-10T03:45:55.454Z,51.21
2022-08-10T03:48:24.305Z,51.11
2022-08-10T03:51:00.374Z,51.08
2022-08-10T03:54:05.813Z,50.83
2022-08-10T03:56:28.333Z,50.97
2022-08-10T03:58:59.295Z,51.04
2022-08-10T04:02:44.075Z,50.97
2022-08-10T04:04:20.589Z,50.98
2022-08-10T04:06:51.572Z,50.74
2022-08-10T04:09:24.838Z,50.79
2022-08-10T04:12:11.644Z,50.95
2022-08-10T04:14:51.072Z,50.83
2022-08-10T04:17:59.445Z,51.10
2022-08-10T04:20:12.938Z,50.90
2022-08-10T04:22:41.028Z,50.97
2022-08-10T04:25:10.630Z,50.99
2022-08-10T04:27:38.579Z,50.64
2022-08-10T04:30:07.680Z,50.53
2022-08-10T04:32:35.726Z,50.61
2022-08-10T04:35:04.421Z,50.69
2022-08-10T04:37:32.393Z,50.98
2022-08-10T04:40:00.338Z,50.82
2022-08-10T04:42:29.601Z,50.77
2022-08-10T04:44:57.538Z,50.97
2022-08-10T04:47:57.875Z,50.75
2022-08-10T04:50:13.393Z,51.01
2022-08-10T04:52:44.281Z,50.68
2022-08-10T04:55:12.177Z,50.94
2022-08-10T04:57:41.588Z,50.63
2022-08-10T05:00:19.009Z,50.71
2022-08-10T05:02:47.693Z,50.80
2022-08-10T05:05:15.585Z,50.75
2022-08-10T05:07:54.004Z,50.45
2022-08-10T05:10:24.887Z,50.71
2022-08-10T05:12:54.332Z,50.51
2022-08-10T05:15:23.829Z,50.97
2022-08-10T05:18:08.454Z,50.84
2022-08-10T05:20:39.136Z,50.41
2022-08-10T05:23:07.447Z,50.86
2022-08-10T05:25:38.030Z,50.42
2022-08-10T05:28:07.627Z,50.57
2022-08-10T05:30:35.585Z,50.57
2022-08-10T05:33:08.110Z,50.64
2022-08-10T05:35:55.418Z,50.83
2022-08-10T05:38:27.312Z,50.76
2022-08-10T05:40:55.221Z,50.88
2022-08-10T05:43:24.509Z,50.94
2022-08-10T05:46:18.543Z,50.89
2022-08-10T05:48:57.116Z,50.55
2022-08-10T05:51:28.042Z,50.58
2022-08-10T05:54:03.207Z,50.87
2022-08-10T05:56:55.754Z,50.83
2022-08-10T06:00:34.552Z,50.64
2022-08-10T06:02:33.531Z,50.53
2022-08-10T06:05:08.062Z,50.57
2022-08-10T06:07:36.921Z,50.41
2022-08-10T06:10:10.202Z,50.22
2022-08-10T06:12:55.021Z,50.05
2022-08-10T06:15:50.536Z,50.06
2022-08-10T06:18:13.732Z,50.05
2022-08-10T06:20:41.637Z,49.90
2022-08-10T06:23:09.532Z,49.62
2022-08-10T06:26:08.366Z,49.55
2022-08-10T06:28:25.899Z,49.48
2022-08-10T06:30:55.322Z,49.64
2022-08-10T06:33:23.936Z,49.61
2022-08-10T06:35:53.106Z,49.77
2022-08-10T06:38:21.088Z,49.72
2022-08-10T06:40:49.095Z,49.72
2022-08-10T06:43:18.401Z,49.50
2022-08-10T06:46:07.488Z,49.37
2022-08-10T06:48:40.446Z,49.25
2022-08-10T06:51:09.315Z,49.33
2022-08-10T06:53:53.805Z,49.28
2022-08-10T06:56:36.765Z,48.93
2022-08-10T06:59:13.421Z,49.03
2022-08-10T07:01:51.717Z,49.01
2022-08-10T07:04:32.678Z,49.24
2022-08-10T07:07:03.423Z,48.97
2022-08-10T07:09:31.409Z,49.01
2022-08-10T07:12:07.914Z,48.89
2022-08-10T07:14:38.516Z,49.01
2022-08-10T07:17:06.843Z,48.84
2022-08-10T07:19:50.321Z,48.65
2022-08-10T07:23:53.841Z,48.59
2022-08-10T07:25:12.432Z,48.59
2022-08-10T07:27:58.723Z,48.41
2022-08-10T07:30:29.312Z,48.13
2022-08-10T07:32:57.262Z,48.26
2022-08-10T07:35:26.906Z,48.24
2022-08-10T07:37:54.836Z,48.07
2022-08-10T07:40:22.954Z,47.86
2022-08-10T07:42:53.921Z,47.67
2022-08-10T07:45:22.040Z,47.49
2022-08-10T07:47:54.888Z,47.54
2022-08-10T07:50:24.415Z,47.48
2022-08-10T07:52:55.172Z,47.48
2022-08-10T07:56:07.606Z,47.58
2022-08-10T07:58:11.345Z,47.29
2022-08-10T08:00:39.306Z,47.12
2022-08-10T08:03:09.358Z,47.21
2022-08-10T08:05:58.464Z,46.92
2022-08-10T08:08:28.750Z,46.85
2022-08-10T08:10:57.320Z,46.78
2022-08-10T08:13:25.278Z,46.60
2022-08-10T08:16:17.681Z,46.65
2022-08-10T08:18:50.940Z,46.34
2022-08-10T08:24:30.564Z,46.26
2022-08-10T08:24:32.852Z,46.25
2022-08-10T08:27:02.549Z,45.79
2022-08-10T08:29:30.573Z,45.79
2022-08-10T08:32:01.931Z,45.48
2022-08-10T08:34:31.070Z,45.34
2022-08-10T08:36:59.935Z,44.89
2022-08-10T08:39:29.879Z,44.61
2022-08-10T08:42:11.686Z,44.36
2022-08-10T08:44:44.296Z,43.73
2022-08-10T08:48:03.987Z,42.92
2022-08-10T08:50:17.690Z,42.01
2022-08-10T08:52:53.646Z,41.10
2022-08-10T08:56:03.497Z,40.90
2022-08-10T08:58:28.040Z,40.09
2022-08-10T09:01:01.702Z,39.15
2022-08-10T09:03:50.992Z,38.82
2022-08-10T09:06:28.563Z,38.00
2022-08-10T09:09:19.733Z,37.62
2022-08-10T09:11:59.610Z,37.00
2022-08-10T09:14:31.781Z,36.36
2022-08-10T09:17:05.071Z,35.87
2022-08-10T09:19:35.482Z,36.15
2022-08-10T09:22:17.585Z,35.34
2022-08-10T09:24:47.844Z,35.34
2022-08-10T09:27:20.474Z,35.33
2022-08-10T09:29:55.084Z,35.09
2022-08-10T09:36:16.061Z,34.62
2022-08-10T09:36:19.792Z,34.34
2022-08-10T09:38:19.440Z,33.50
2022-08-10T09:41:01.056Z,33.03
2022-08-10T09:43:43.386Z,32.86
2022-08-10T09:46:15.439Z,32.40
2022-08-10T09:48:46.969Z,31.56
2022-08-10T09:54:13.690Z,31.04
2022-08-10T09:56:50.981Z,30.97
2022-08-10T09:59:26.998Z,30.60
2022-08-10T10:02:16.985Z,30.50
2022-08-10T10:04:48.753Z,30.36
2022-08-10T10:07:20.798Z,29.73
2022-08-10T10:09:51.700Z,29.27
2022-08-10T10:12:22.823Z,29.28
2022-08-10T10:15:25.348Z,29.38
2022-08-10T10:18:06.350Z,28.71
2022-08-10T10:20:37.201Z,28.51
2022-08-10T10:23:11.707Z,28.25
2022-08-10T10:25:49.840Z,27.93
2022-08-10T10:28:25.731Z,27.74
2022-08-10T10:31:19.952Z,27.13
2022-08-10T10:33:53.013Z,26.98
2022-08-10T10:36:21.030Z,27.13
2022-08-10T10:38:49.001Z,26.71
2022-08-10T10:41:21.744Z,26.54
2022-08-10T10:43:56.914Z,26.03
2022-08-10T10:46:34.658Z,25.86
2022-08-10T10:49:08.776Z,25.96
2022-08-10T10:51:41.887Z,26.44
2022-08-10T10:54:10.590Z,25.99
2022-08-10T10:56:44.574Z,25.72
2022-08-10T10:59:56.043Z,26.22
2022-08-10T11:02:15.903Z,25.81
2022-08-10T11:04:46.710Z,25.77
2022-08-10T11:07:17.610Z,25.72
2022-08-10T11:10:06.056Z,25.18
2022-08-10T11:12:45.073Z,25.09
2022-08-10T11:15:17.884Z,24.71
2022-08-10T11:17:49.886Z,24.54
2022-08-10T11:20:20.536Z,24.38
2022-08-10T11:23:00.712Z,24.46
2022-08-10T11:25:29.990Z,24.41
2022-08-10T11:28:00.561Z,24.01
2022-08-10T11:30:30.918Z,24.38
2022-08-10T11:33:31.098Z,25.15
2022-08-10T11:36:03.205Z,24.38
2022-08-10T11:38:47.119Z,23.84
2022-08-10T11:42:12.276Z,23.45
2022-08-10T11:44:22.642Z,23.23
2022-08-10T11:46:55.057Z,22.54
2022-08-10T11:49:31.002Z,21.89
2022-08-10T11:52:01.805Z,21.71
2022-08-10T11:54:31.635Z,22.13
2022-08-10T11:57:02.426Z,22.20
2022-08-10T11:59:50.489Z,21.40
2022-08-10T12:02:21.165Z,20.44
2022-08-10T12:04:53.056Z,20.21
2022-08-10T12:09:22.587Z,20.65
2022-08-10T12:10:13.518Z,20.16
2022-08-10T12:12:47.014Z,19.87
2022-08-10T12:15:18.325Z,19.68
2022-08-10T12:17:47.401Z,19.12
2022-08-10T12:20:17.905Z,19.57
2022-08-10T12:22:51.689Z,18.90
2022-08-10T12:25:57.182Z,18.66
2022-08-10T12:28:15.166Z,18.72
2022-08-10T12:30:59.911Z,18.63
2022-08-10T12:33:30.353Z,18.51
2022-08-10T12:36:19.305Z,18.47
2022-08-10T12:38:50.744Z,18.67
2022-08-10T12:41:23.852Z,18.26
2022-08-10T12:44:10.028Z,17.74
2022-08-10T12:46:41.009Z,17.54
2022-08-10T12:49:13.047Z,17.17
2022-08-10T12:51:49.676Z,16.82
2022-08-10T12:54:31.839Z,17.55
2022-08-10T12:57:01.491Z,17.45
2022-08-10T12:59:29.771Z,16.74
2022-08-10T13:02:09.902Z,17.68
2022-08-10T13:04:39.211Z,17.36
2022-08-10T13:07:08.509Z,16.88
2022-08-10T13:09:55.908Z,16.75
2022-08-10T13:12:36.231Z,17.06
2022-08-10T13:15:44.571Z,16.68
2022-08-10T13:18:00.983Z,16.42
2022-08-10T13:20:30.051Z,15.70
2022-08-10T13:23:01.672Z,15.68
2022-08-10T13:25:31.003Z,15.84
2022-08-10T13:28:34.763Z,15.85
2022-08-10T13:30:50.703Z,15.44
2022-08-10T13:34:35.877Z,15.73
2022-08-10T13:36:07.888Z,15.68
2022-08-10T13:38:37.271Z,15.20
2022-08-10T13:41:05.244Z,15.28
2022-08-10T13:43:33.337Z,14.86
2022-08-10T13:46:01.275Z,14.95
2022-08-10T13:48:30.655Z,14.72
2022-08-10T13:50:59.353Z,14.53
2022-08-10T13:53:30.600Z,14.76
2022-08-10T13:55:59.988Z,14.51
2022-08-10T13:58:30.204Z,14.50
2022-08-10T14:00:59.016Z,14.69
2022-08-10T14:03:27.143Z,14.13
2022-08-10T14:05:55.818Z,14.08
2022-08-10T14:08:24.957Z,13.81
2022-08-10T14:11:09.384Z,13.96
2022-08-10T14:13:43.491Z,14.29
2022-08-10T14:16:11.640Z,14.38
2022-08-10T14:18:39.797Z,14.11
2022-08-10T14:21:07.770Z,13.91
2022-08-10T14:23:40.830Z,13.91
2022-08-10T14:26:09.842Z,13.49
2022-08-10T14:28:40.369Z,13.30
2022-08-10T14:31:09.809Z,13.59
2022-08-10T14:33:38.070Z,13.90
2022-08-10T14:36:19.452Z,13.99
2022-08-10T14:38:51.602Z,13.67
2022-08-10T14:42:04.223Z,13.03
2022-08-10T14:44:15.163Z,13.88
2022-08-10T14:46:44.811Z,14.02
2022-08-10T14:49:26.115Z,14.49
2022-08-10T14:51:57.861Z,14.02
2022-08-10T14:54:29.500Z,14.30
2022-08-10T14:56:57.713Z,14.27
2022-08-10T15:00:20.765Z,14.42
2022-08-10T15:02:38.409Z,14.29
2022-08-10T15:05:09.109Z,14.20
2022-08-10T15:07:38.097Z,14.56
2022-08-10T15:10:07.480Z,14.54
2022-08-10T15:12:36.793Z,14.37
2022-08-10T15:15:10.703Z,13.74
2022-08-10T15:17:40.561Z,14.34
2022-08-10T15:20:14.716Z,14.15
2022-08-10T15:22:47.046Z,14.44
2022-08-10T15:25:25.174Z,14.38
2022-08-10T15:27:56.495Z,13.96
2022-08-10T15:30:31.023Z,14.08
2022-08-10T15:33:21.217Z,14.10
2022-08-10T15:36:23.765Z,14.01
2022-08-10T15:38:59.326Z,14.21
2022-08-10T15:41:59.539Z,14.05
2022-08-10T15:44:24.632Z,13.98
2022-08-10T15:46:57.709Z,14.02
2022-08-10T15:49:27.445Z,13.98
2022-08-10T15:52:02.021Z,14.04
2022-08-10T15:54:33.781Z,13.97
2022-08-10T15:57:03.777Z,14.05
2022-08-10T15:59:33.151Z,14.07
2022-08-10T16:02:16.042Z,14.05
2022-08-10T16:04:48.764Z,14.06
2022-08-10T16:07:19.512Z,14.35
2022-08-10T16:10:22.602Z,13.88
2022-08-10T16:12:41.582Z,14.18
2022-08-10T16:15:12.953Z,14.11
2022-08-10T16:17:55.678Z,14.08
2022-08-10T16:20:27.774Z,13.60
2022-08-10T16:22:57.875Z,13.48
2022-08-10T16:25:47.819Z,13.71
2022-08-10T16:28:20.264Z,13.62
2022-08-10T16:30:54.516Z,13.71
2022-08-10T16:33:52.446Z,14.26
2022-08-10T16:36:16.947Z,14.21
2022-08-10T16:38:46.118Z,13.56
2022-08-10T16:42:02.016Z,14.13
2022-08-10T16:44:02.224Z,13.63
2022-08-10T16:46:30.145Z,13.62
2022-08-10T16:48:59.824Z,13.85
2022-08-10T16:51:27.818Z,13.61
2022-08-10T16:53:55.746Z,13.51
2022-08-10T16:56:25.148Z,13.72
2022-08-10T16:58:55.125Z,13.60
2022-08-10T17:01:24.481Z,13.61
2022-08-10T17:04:08.041Z,13.40
2022-08-10T17:06:40.345Z,13.52
2022-08-10T17:09:09.175Z,13.57
2022-08-10T17:11:38.701Z,14.29
2022-08-10T17:14:08.861Z,14.32
2022-08-10T17:16:37.715Z,13.74
2022-08-10T17:19:08.300Z,13.82
2022-08-10T17:21:38.671Z,14.12
2022-08-10T17:24:22.165Z,13.97
2022-08-10T17:26:50.069Z,13.74
2022-08-10T17:29:53.262Z,14.10
2022-08-10T17:32:15.415Z,14.52
2022-08-10T17:34:47.741Z,14.81
2022-08-10T17:37:24.500Z,15.61
2022-08-10T17:39:58.253Z,16.50
2022-08-10T17:42:32.676Z,17.46
2022-08-10T17:45:46.272Z,18.12
2022-08-10T17:48:14.944Z,18.83
2022-08-10T17:50:44.793Z,19.06
2022-08-10T17:53:21.503Z,19.44
2022-08-10T17:56:03.148Z,20.17
2022-08-10T17:58:32.058Z,20.93
2022-08-10T18:01:38.420Z,21.12
2022-08-10T18:03:59.449Z,21.33
2022-08-10T18:09:26.478Z,21.74
2022-08-10T18:11:58.659Z,22.09
2022-08-10T18:14:26.657Z,22.41
2022-08-10T18:16:54.773Z,22.45
2022-08-10T18:19:22.687Z,22.62
2022-08-10T18:21:50.625Z,22.64
2022-08-10T18:24:21.089Z,22.85
2022-08-10T18:26:51.116Z,23.08
2022-08-10T18:29:20.070Z,23.08
2022-08-10T18:31:49.019Z,23.29
2022-08-10T18:34:19.173Z,23.32
2022-08-10T18:36:47.771Z,23.67
2022-08-10T18:39:16.319Z,23.80
2022-08-10T18:42:00.364Z,23.67
2022-08-10T18:44:35.012Z,23.74
2022-08-10T18:47:04.882Z,23.85
2022-08-10T18:49:34.200Z,24.02
2022-08-10T18:52:03.486Z,24.00
2022-08-10T18:54:44.970Z,24.01
2022-08-10T18:57:22.403Z,24.21
2022-08-10T19:00:07.344Z,24.30
2022-08-10T19:02:47.544Z,24.99
2022-08-10T19:05:30.541Z,25.46
2022-08-10T19:08:30.699Z,26.22
2022-08-10T19:11:03.665Z,26.34
2022-08-10T19:13:34.876Z,26.86
2022-08-10T19:16:08.499Z,26.51
2022-08-10T19:18:38.983Z,26.84
2022-08-10T19:21:12.613Z,27.07
2022-08-10T19:23:55.711Z,26.73
2022-08-10T19:26:44.645Z,26.56
2022-08-10T19:30:09.589Z,27.14
2022-08-10T19:32:21.654Z,27.05
2022-08-10T19:35:01.482Z,27.23
2022-08-10T19:37:34.848Z,27.02
2022-08-10T19:40:12.557Z,27.15
2022-08-10T19:42:41.610Z,27.21
2022-08-10T19:46:01.420Z,27.43
2022-08-10T19:48:11.893Z,27.42
2022-08-10T19:50:42.681Z,27.75
2022-08-10T19:53:13.460Z,27.49
2022-08-10T19:55:43.645Z,27.32
2022-08-10T19:58:18.055Z,27.41
2022-08-10T20:00:54.826Z,27.43
2022-08-10T20:03:26.300Z,27.51
2022-08-10T20:06:19.066Z,27.34
2022-08-10T20:08:51.697Z,26.96
2022-08-10T20:11:45.917Z,26.99
2022-08-10T20:14:21.964Z,27.16
2022-08-10T20:16:53.479Z,27.15
2022-08-10T20:19:53.459Z,27.68
2022-08-10T20:22:16.109Z,27.25
2022-08-10T20:24:57.077Z,27.49
2022-08-10T20:28:00.435Z,27.37
2022-08-10T20:30:15.617Z,27.57
2022-08-10T20:32:52.144Z,28.05
2022-08-10T20:35:25.039Z,28.37
2022-08-10T20:38:03.688Z,28.30
2022-08-10T20:40:40.462Z,28.29
2022-08-10T20:43:12.629Z,28.36
2022-08-10T20:46:07.045Z,28.80
2022-08-10T20:48:36.732Z,28.64
2022-08-10T20:51:06.732Z,29.11
2022-08-10T20:53:35.484Z,28.96
2022-08-10T20:56:09.301Z,29.16
2022-08-10T20:58:50.868Z,29.08
2022-08-10T21:01:19.493Z,29.17
2022-08-10T21:04:01.592Z,29.80
2022-08-10T21:07:01.881Z,29.95
2022-08-10T21:09:37.438Z,30.23
2022-08-10T21:15:12.617Z,30.18
2022-08-10T21:17:49.911Z,30.71
2022-08-10T21:20:34.031Z,30.80
2022-08-10T21:23:05.149Z,30.50
2022-08-10T21:25:40.220Z,30.81
2022-08-10T21:28:44.870Z,30.69
2022-08-10T21:31:34.185Z,31.08
2022-08-10T21:34:09.753Z,30.84
2022-08-10T21:36:43.618Z,31.15
2022-08-10T21:39:16.096Z,31.09
2022-08-10T21:42:07.697Z,31.33
2022-08-10T21:45:12.085Z,31.45
2022-08-10T21:48:17.196Z,31.83
2022-08-10T21:51:07.048Z,32.00
2022-08-10T21:53:56.821Z,32.07
2022-08-10T21:56:46.195Z,32.25
2022-08-10T21:59:35.320Z,32.52
2022-08-10T22:02:22.701Z,32.90
2022-08-10T22:05:17.860Z,33.18
2022-08-10T22:08:06.853Z,33.08
2022-08-10T22:11:00.896Z,33.62
2022-08-10T22:13:46.319Z,33.40
2022-08-10T22:16:40.986Z,33.82
2022-08-10T22:19:26.442Z,33.92
2022-08-10T22:22:27.027Z,33.91
2022-08-10T22:25:22.390Z,34.06
2022-08-10T22:28:12.389Z,34.16
2022-08-10T22:31:29.945Z,34.17
2022-08-10T22:34:14.033Z,34.19
2022-08-10T22:37:18.967Z,34.57
2022-08-10T22:40:17.211Z,34.74
2022-08-10T22:43:10.548Z,34.65
2022-08-10T22:46:03.359Z,34.94
2022-08-10T22:48:48.440Z,34.92
2022-08-10T22:51:21.928Z,35.13
2022-08-10T22:54:08.564Z,35.32
2022-08-10T22:57:02.226Z,35.46
2022-08-10T22:59:30.922Z,35.64
2022-08-10T23:02:08.991Z,35.98
2022-08-10T23:04:44.710Z,35.94
2022-08-10T23:07:17.412Z,36.26
2022-08-10T23:09:45.997Z,36.32
2022-08-10T23:12:15.310Z,36.35
2022-08-10T23:14:58.933Z,36.54
2022-08-10T23:18:00.848Z,36.64
2022-08-10T23:20:30.232Z,36.95
2022-08-10T23:23:03.622Z,37.31
2022-08-10T23:25:34.180Z,37.61
2022-08-10T23:28:11.475Z,37.77
2022-08-10T23:38:39.334Z,38.14
2022-08-10T23:41:34.993Z,38.32
2022-08-10T23:44:04.830Z,38.41
2022-08-10T23:46:34.178Z,38.75
2022-08-10T23:49:02.505Z,38.68
2022-08-10T23:51:38.905Z,38.79
2022-08-10T23:54:19.364Z,39.08
2022-08-10T23:56:48.644Z,39.07
2022-08-10T23:59:19.125Z,39.34
